createdAt,value
2019-03-29T00:00:54.111Z,98477.81
2019-03-29T00:02:30.246Z,98479.03
2019-03-29T00:04:16.269Z,98473.86
2019-03-29T00:06:04.160Z,98484.78
2019-03-29T00:07:48.832Z,98480.19
2019-03-29T00:09:33.313Z,98486.36
2019-03-29T00:11:09.793Z,98479.28
2019-03-29T00:12:46.412Z,98487.13
2019-03-29T00:14:34.699Z,98477.46
2019-03-29T00:16:11.853Z,98480.59
2019-03-29T00:17:54.398Z,98488.09
2019-03-29T00:19:30.650Z,98478.98
2019-03-29T00:21:06.855Z,98482.95
2019-03-29T00:22:43.231Z,98481.08
2019-03-29T00:24:20.171Z,98481.03
2019-03-29T00:25:57.039Z,98484.08
2019-03-29T00:27:35.541Z,98483.69
2019-03-29T00:29:14.184Z,98475.88
2019-03-29T00:30:53.223Z,98484.13
2019-03-29T00:32:40.875Z,98485.69
2019-03-29T00:34:16.803Z,98488.95
2019-03-29T00:35:53.186Z,98484.77
2019-03-29T00:37:29.536Z,98485.14
2019-03-29T00:39:05.862Z,98482.00
2019-03-29T00:40:42.455Z,98486.34
2019-03-29T00:42:19.953Z,98484.60
2019-03-29T00:43:56.497Z,98484.11
2019-03-29T00:45:33.432Z,98480.62
2019-03-29T00:47:13.439Z,98484.77
2019-03-29T00:48:52.481Z,98477.45
2019-03-29T00:50:29.201Z,98484.50
2019-03-29T00:52:05.565Z,98479.08
2019-03-29T00:53:41.578Z,98481.98
2019-03-29T00:55:17.998Z,98483.67
2019-03-29T00:56:55.123Z,98486.16
2019-03-29T00:58:32.588Z,98486.35
2019-03-29T01:00:21.989Z,98484.13
2019-03-29T01:01:58.905Z,98486.03
2019-03-29T01:03:36.959Z,98483.19
2019-03-29T01:05:13.355Z,98480.27
2019-03-29T01:06:49.560Z,98478.25
2019-03-29T01:08:25.754Z,98473.67
2019-03-29T01:10:03.178Z,98471.35
2019-03-29T01:11:40.897Z,98471.51
2019-03-29T01:13:20.805Z,98471.41
2019-03-29T01:15:00.027Z,98472.09
2019-03-29T01:16:39.478Z,98470.16
2019-03-29T01:18:31.484Z,98477.92
2019-03-29T01:20:12.457Z,98466.11
2019-03-29T01:21:46.632Z,98467.42
2019-03-29T01:23:24.026Z,98475.49
2019-03-29T01:25:00.820Z,98472.09
2019-03-29T01:26:37.079Z,98485.46
2019-03-29T01:28:13.398Z,98478.62
2019-03-29T01:29:49.599Z,98478.23
2019-03-29T01:31:26.150Z,98484.58
2019-03-29T01:33:02.106Z,98480.95
2019-03-29T01:34:38.828Z,98482.16
2019-03-29T01:36:18.763Z,98480.44
2019-03-29T01:37:55.111Z,98482.92
2019-03-29T01:39:30.981Z,98486.39
2019-03-29T01:41:07.443Z,98480.05
2019-03-29T01:42:47.340Z,98478.38
2019-03-29T01:44:23.431Z,98475.45
2019-03-29T01:46:01.207Z,98480.09
2019-03-29T01:47:37.495Z,98478.56
2019-03-29T01:49:14.040Z,98474.03
2019-03-29T01:50:55.143Z,98468.63
2019-03-29T01:52:31.647Z,98463.49
2019-03-29T01:54:08.088Z,98460.86
2019-03-29T01:55:46.755Z,98459.43
2019-03-29T01:57:25.311Z,98455.28
2019-03-29T01:59:01.631Z,98450.29
2019-03-29T02:00:37.956Z,98443.78
2019-03-29T02:02:18.443Z,98439.14
2019-03-29T02:03:57.028Z,98434.66
2019-03-29T02:05:33.378Z,98434.40
2019-03-29T02:07:09.913Z,98423.93
2019-03-29T02:08:45.925Z,98420.20
2019-03-29T02:10:22.881Z,98421.86
2019-03-29T02:11:58.885Z,98417.28
2019-03-29T02:13:37.933Z,98408.89
2019-03-29T02:15:19.805Z,98404.62
2019-03-29T02:16:56.029Z,98402.00
2019-03-29T02:18:33.523Z,98401.55
2019-03-29T02:20:09.849Z,98394.56
2019-03-29T02:21:46.593Z,98384.39
2019-03-29T02:23:23.001Z,98376.55
2019-03-29T02:24:59.214Z,98374.62
2019-03-29T02:26:35.733Z,98369.41
2019-03-29T02:28:12.215Z,98368.91
2019-03-29T02:29:48.537Z,98363.34
2019-03-29T02:31:26.064Z,98357.92
2019-03-29T02:33:02.579Z,98354.67
2019-03-29T02:34:39.973Z,98352.91
2019-03-29T02:36:17.714Z,98348.23
2019-03-29T02:37:56.372Z,98351.67
2019-03-29T02:39:32.252Z,98349.23
2019-03-29T02:41:10.084Z,98353.73
2019-03-29T02:42:46.403Z,98348.02
2019-03-29T02:44:22.766Z,98341.40
2019-03-29T02:45:59.498Z,98342.02
2019-03-29T02:47:35.720Z,98334.42
2019-03-29T02:49:13.162Z,98338.06
2019-03-29T02:50:49.339Z,98330.72
2019-03-29T02:52:25.692Z,98337.20
2019-03-29T02:54:02.277Z,98332.56
2019-03-29T02:55:38.583Z,98331.66
2019-03-29T02:57:14.469Z,98337.92
2019-03-29T02:58:50.560Z,98337.44
2019-03-29T03:00:26.783Z,98336.51
2019-03-29T03:02:03.767Z,98337.08
2019-03-29T03:03:39.917Z,98340.63
2019-03-29T03:05:16.091Z,98336.05
2019-03-29T03:06:52.803Z,98343.27
2019-03-29T03:08:32.599Z,98340.90
2019-03-29T03:10:08.094Z,98342.83
2019-03-29T03:11:47.705Z,98340.69
2019-03-29T03:13:23.598Z,98339.36
2019-03-29T03:14:59.739Z,98335.94
2019-03-29T03:16:36.085Z,98332.50
2019-03-29T03:18:12.330Z,98329.95
2019-03-29T03:19:48.268Z,98325.05
2019-03-29T03:21:24.268Z,98329.23
2019-03-29T03:23:01.716Z,98323.13
2019-03-29T03:24:37.944Z,98332.08
2019-03-29T03:26:14.110Z,98334.31
2019-03-29T03:27:50.283Z,98332.38
2019-03-29T03:29:26.810Z,98330.45
2019-03-29T03:31:03.262Z,98331.13
2019-03-29T03:32:39.903Z,98329.80
2019-03-29T03:34:16.397Z,98328.44
2019-03-29T03:35:56.154Z,98326.97
2019-03-29T03:37:32.583Z,98324.80
2019-03-29T03:39:09.773Z,98325.53
2019-03-29T03:40:47.936Z,98326.82
2019-03-29T03:42:24.226Z,98328.51
2019-03-29T03:44:00.534Z,98330.52
2019-03-29T03:45:36.551Z,98328.51
2019-03-29T03:47:13.048Z,98327.24
2019-03-29T03:48:49.402Z,98323.87
2019-03-29T03:50:50.361Z,98322.97
2019-03-29T03:52:26.530Z,98320.38
2019-03-29T03:54:03.091Z,98316.16
2019-03-29T03:55:39.670Z,98322.11
2019-03-29T03:57:15.972Z,98322.91
2019-03-29T03:58:52.536Z,98324.78
2019-03-29T04:00:37.775Z,98327.14
2019-03-29T04:02:14.367Z,98323.97
2019-03-29T04:03:53.231Z,98327.95
2019-03-29T04:05:32.147Z,98318.84
2019-03-29T04:07:08.892Z,98320.41
2019-03-29T04:08:45.381Z,98321.83
2019-03-29T04:10:21.934Z,98322.19
2019-03-29T04:11:58.530Z,98325.25
2019-03-29T04:13:34.647Z,98328.83
2019-03-29T04:15:14.305Z,98327.13
2019-03-29T04:16:50.431Z,98323.42
2019-03-29T04:18:26.465Z,98331.05
2019-03-29T04:20:02.757Z,98326.58
2019-03-29T04:21:39.536Z,98327.71
2019-03-29T04:23:16.350Z,98325.36
2019-03-29T04:24:52.854Z,98326.58
2019-03-29T04:26:29.006Z,98335.95
2019-03-29T04:28:05.267Z,98333.33
2019-03-29T04:29:41.513Z,98338.73
2019-03-29T04:31:18.156Z,98337.38
2019-03-29T04:32:54.436Z,98336.59
2019-03-29T04:34:30.725Z,98344.77
2019-03-29T04:36:07.065Z,98337.80
2019-03-29T04:37:43.177Z,98347.34
2019-03-29T04:39:19.749Z,98343.30
2019-03-29T04:41:02.609Z,98346.48
2019-03-29T04:42:39.211Z,98359.73
2019-03-29T04:44:15.713Z,98357.81
2019-03-29T04:45:51.964Z,98355.51
2019-03-29T04:47:29.290Z,98358.38
2019-03-29T04:49:06.016Z,98362.42
2019-03-29T04:50:42.232Z,98361.30
2019-03-29T04:52:18.795Z,98363.78
2019-03-29T04:53:54.849Z,98364.56
2019-03-29T04:55:33.147Z,98368.18
2019-03-29T04:57:09.959Z,98365.75
2019-03-29T04:58:46.303Z,98366.31
2019-03-29T05:00:22.761Z,98371.09
2019-03-29T05:01:58.981Z,98364.55
2019-03-29T05:03:36.210Z,98371.73
2019-03-29T05:05:16.621Z,98372.52
2019-03-29T05:06:53.274Z,98373.09
2019-03-29T05:08:29.397Z,98371.17
2019-03-29T05:10:19.991Z,98375.01
2019-03-29T05:11:47.211Z,98377.14
2019-03-29T05:13:23.622Z,98383.33
2019-03-29T05:15:00.506Z,98381.25
2019-03-29T05:16:36.996Z,98380.11
2019-03-29T05:18:13.589Z,98379.41
2019-03-29T05:19:50.295Z,98373.93
2019-03-29T05:21:26.401Z,98377.55
2019-03-29T05:23:02.939Z,98377.63
2019-03-29T05:24:39.548Z,98376.70
2019-03-29T05:26:17.169Z,98376.79
2019-03-29T05:27:55.501Z,98376.63
2019-03-29T05:29:31.681Z,98374.34
2019-03-29T05:31:07.860Z,98373.42
2019-03-29T05:32:44.366Z,98368.31
2019-03-29T05:34:20.905Z,98371.80
2019-03-29T05:35:57.605Z,98370.67
2019-03-29T05:37:33.914Z,98379.68
2019-03-29T05:39:11.320Z,98375.47
2019-03-29T05:40:48.227Z,98379.72
2019-03-29T05:42:24.671Z,98377.44
2019-03-29T05:44:01.240Z,98377.86
2019-03-29T05:45:37.528Z,98382.13
2019-03-29T05:47:13.934Z,98383.39
2019-03-29T05:48:50.522Z,98382.47
2019-03-29T05:50:26.876Z,98380.97
2019-03-29T05:52:03.819Z,98381.72
2019-03-29T05:53:42.755Z,98377.98
2019-03-29T05:55:32.005Z,98382.29
2019-03-29T05:56:57.808Z,98377.98
2019-03-29T05:58:36.108Z,98377.48
2019-03-29T06:00:14.606Z,98375.34
2019-03-29T06:02:05.200Z,98380.32
2019-03-29T06:03:42.897Z,98378.22
2019-03-29T06:05:19.145Z,98372.09
2019-03-29T06:06:55.320Z,98373.59
2019-03-29T06:08:35.323Z,98370.48
2019-03-29T06:10:11.751Z,98368.78
2019-03-29T06:11:48.012Z,98361.20
2019-03-29T06:13:25.643Z,98364.48
2019-03-29T06:15:13.466Z,98366.77
2019-03-29T06:17:09.508Z,98363.00
2019-03-29T06:18:46.795Z,98363.70
2019-03-29T06:20:24.039Z,98357.44
2019-03-29T06:22:04.114Z,98359.25
2019-03-29T06:23:40.862Z,98359.23
2019-03-29T06:25:24.062Z,98359.22
2019-03-29T06:27:02.186Z,98353.20
2019-03-29T06:28:39.338Z,98348.66
2019-03-29T06:30:18.965Z,98347.85
2019-03-29T06:31:55.363Z,98348.23
2019-03-29T06:33:32.271Z,98340.67
2019-03-29T06:35:10.212Z,98337.69
2019-03-29T06:36:46.644Z,98335.61
2019-03-29T06:38:26.181Z,98334.45
2019-03-29T06:40:05.393Z,98327.66
2019-03-29T06:41:42.077Z,98320.84
2019-03-29T06:43:19.272Z,98319.16
2019-03-29T06:44:57.076Z,98311.31
2019-03-29T06:46:33.480Z,98315.72
2019-03-29T06:48:11.561Z,98312.12
2019-03-29T06:49:49.804Z,98307.14
2019-03-29T06:51:27.151Z,98304.45
2019-03-29T06:53:03.606Z,98310.69
2019-03-29T06:54:40.859Z,98310.86
2019-03-29T06:56:18.275Z,98315.91
2019-03-29T06:57:55.285Z,98318.03
2019-03-29T06:59:33.270Z,98325.80
2019-03-29T07:01:10.117Z,98339.17
2019-03-29T07:02:46.402Z,98338.93
2019-03-29T07:04:22.494Z,98343.53
2019-03-29T07:06:12.985Z,98348.77
2019-03-29T07:07:58.837Z,98351.02
2019-03-29T07:09:43.600Z,98345.05
2019-03-29T07:11:19.760Z,98354.21
2019-03-29T07:12:56.749Z,98357.70
2019-03-29T07:14:34.904Z,98360.35
2019-03-29T07:16:12.327Z,98356.45
2019-03-29T07:17:55.370Z,98355.97
2019-03-29T07:19:31.974Z,98362.92
2019-03-29T07:21:20.755Z,98361.45
2019-03-29T07:22:52.965Z,98359.58
2019-03-29T07:24:30.204Z,98351.84
2019-03-29T07:26:07.527Z,98353.92
2019-03-29T07:27:51.871Z,98355.37
2019-03-29T07:29:24.104Z,98352.84
2019-03-29T07:31:00.414Z,98361.73
2019-03-29T07:32:36.717Z,98356.55
2019-03-29T07:34:15.830Z,98349.20
2019-03-29T07:35:52.070Z,98352.51
2019-03-29T07:37:31.380Z,98349.64
2019-03-29T07:39:08.635Z,98353.23
2019-03-29T07:40:45.004Z,98348.14
2019-03-29T07:42:21.836Z,98347.70
2019-03-29T07:43:58.689Z,98345.30
2019-03-29T07:45:39.232Z,98345.85
2019-03-29T07:47:16.075Z,98351.44
2019-03-29T07:48:52.274Z,98346.70
2019-03-29T07:50:30.380Z,98350.35
2019-03-29T07:52:14.199Z,98353.50
2019-03-29T07:53:53.444Z,98350.84
2019-03-29T07:55:37.155Z,98355.16
2019-03-29T07:57:17.856Z,98355.95
2019-03-29T07:58:56.210Z,98351.05
2019-03-29T08:00:40.318Z,98351.14
2019-03-29T08:02:18.399Z,98340.63
2019-03-29T08:03:54.823Z,98350.40
2019-03-29T08:05:40.962Z,98350.23
2019-03-29T08:07:27.114Z,98351.55
2019-03-29T08:08:56.515Z,98347.41
2019-03-29T08:10:37.821Z,98343.98
2019-03-29T08:12:18.136Z,98345.16
2019-03-29T08:13:57.647Z,98346.53
2019-03-29T08:15:37.138Z,98348.77
2019-03-29T08:17:17.751Z,98349.37
2019-03-29T08:18:54.153Z,98342.08
2019-03-29T08:20:43.645Z,98341.23
2019-03-29T08:22:13.210Z,98343.97
2019-03-29T08:23:51.865Z,98339.59
2019-03-29T08:25:28.750Z,98341.32
2019-03-29T08:27:06.311Z,98342.92
2019-03-29T08:28:43.748Z,98337.59
2019-03-29T08:30:20.171Z,98343.86
2019-03-29T08:31:56.690Z,98339.73
2019-03-29T08:33:32.840Z,98333.92
2019-03-29T08:35:09.200Z,98340.72
2019-03-29T08:36:45.665Z,98332.28
2019-03-29T08:38:23.197Z,98329.61
2019-03-29T08:40:05.223Z,98334.42
2019-03-29T08:41:43.327Z,98337.30
2019-03-29T08:43:32.482Z,98332.02
2019-03-29T08:45:10.176Z,98331.62
2019-03-29T08:46:52.304Z,98335.75
2019-03-29T08:48:28.422Z,98333.30
2019-03-29T08:50:05.684Z,98333.05
2019-03-29T08:51:48.508Z,98335.44
2019-03-29T08:53:27.587Z,98331.66
2019-03-29T08:55:06.856Z,98336.19
2019-03-29T08:56:55.701Z,98337.80
2019-03-29T08:58:35.172Z,98331.48
2019-03-29T09:00:15.670Z,98324.69
2019-03-29T09:01:56.333Z,98327.84
2019-03-29T09:03:36.335Z,98329.56
2019-03-29T09:05:16.943Z,98325.23
2019-03-29T09:06:59.285Z,98325.66
2019-03-29T09:08:56.493Z,98334.59
2019-03-29T09:10:43.123Z,98335.86
2019-03-29T09:14:39.396Z,98331.55
2019-03-29T09:16:19.452Z,98338.48
2019-03-29T09:18:01.743Z,98336.46
2019-03-29T09:19:49.458Z,98334.53
2019-03-29T09:21:26.985Z,98339.63
2019-03-29T09:23:05.485Z,98334.53
2019-03-29T09:24:42.162Z,98335.37
2019-03-29T09:26:20.169Z,98332.69
2019-03-29T09:27:56.495Z,98333.38
2019-03-29T09:29:39.821Z,98330.05
2019-03-29T09:31:16.415Z,98329.63
2019-03-29T09:32:52.500Z,98335.22
2019-03-29T09:34:29.503Z,98329.08
2019-03-29T09:36:07.345Z,98329.72
2019-03-29T09:37:45.318Z,98330.49
2019-03-29T09:39:22.991Z,98332.08
2019-03-29T09:41:00.280Z,98334.80
2019-03-29T09:42:37.118Z,98335.25
2019-03-29T09:44:13.508Z,98332.61
2019-03-29T09:45:55.228Z,98330.78
2019-03-29T09:47:40.778Z,98339.66
2019-03-29T09:49:15.381Z,98338.02
2019-03-29T09:50:52.434Z,98336.83
2019-03-29T09:52:28.600Z,98342.01
2019-03-29T09:54:05.275Z,98354.22
2019-03-29T09:55:41.710Z,98344.77
2019-03-29T09:57:18.271Z,98350.54
2019-03-29T09:59:04.793Z,98344.12
2019-03-29T10:00:45.022Z,98345.09
2019-03-29T10:02:21.618Z,98342.83
2019-03-29T10:04:09.000Z,98348.17
2019-03-29T10:05:49.310Z,98347.08
2019-03-29T10:07:31.400Z,98363.44
2019-03-29T10:09:12.054Z,98382.39
2019-03-29T10:10:53.168Z,98388.53
2019-03-29T10:12:42.618Z,98393.23
2019-03-29T10:14:08.752Z,98411.25
2019-03-29T10:15:44.817Z,98415.00
2019-03-29T10:17:22.696Z,98406.39
2019-03-29T10:19:01.205Z,98394.09
2019-03-29T10:20:38.360Z,98396.31
2019-03-29T10:22:17.144Z,98376.53
2019-03-29T10:24:32.123Z,98360.55
2019-03-29T10:26:13.258Z,98322.31
2019-03-29T10:27:53.512Z,98268.34
2019-03-29T10:29:29.609Z,98253.95
2019-03-29T10:31:12.949Z,98256.59
2019-03-29T10:32:55.519Z,98252.21
2019-03-29T10:34:37.754Z,98252.98
2019-03-29T10:36:14.426Z,98253.05
2019-03-29T10:37:50.860Z,98252.16
2019-03-29T10:39:29.463Z,98253.24
2019-03-29T10:41:08.268Z,98246.69
2019-03-29T10:42:56.951Z,98255.06
2019-03-29T10:44:21.916Z,98249.18
2019-03-29T10:46:01.005Z,98244.14
2019-03-29T10:47:43.504Z,98241.70
2019-03-29T10:49:15.973Z,98243.23
2019-03-29T10:50:53.193Z,98243.77
2019-03-29T10:52:35.515Z,98240.97
2019-03-29T10:54:14.036Z,98234.78
2019-03-29T10:55:51.200Z,98231.56
2019-03-29T10:57:30.920Z,98231.52
2019-03-29T10:59:07.376Z,98229.43
2019-03-29T11:00:44.483Z,98228.09
2019-03-29T11:02:21.627Z,98216.30
2019-03-29T11:03:59.553Z,98217.08
2019-03-29T11:05:43.888Z,98209.43
2019-03-29T11:07:24.241Z,98203.92
2019-03-29T11:09:03.351Z,98221.82
2019-03-29T11:10:44.438Z,98215.30
2019-03-29T11:12:21.627Z,98214.32
2019-03-29T11:13:59.594Z,98210.45
2019-03-29T11:15:42.136Z,98205.98
2019-03-29T11:17:21.579Z,98216.91
2019-03-29T11:18:59.596Z,98211.63
2019-03-29T11:20:41.842Z,98212.90
2019-03-29T11:22:22.131Z,98203.95
2019-03-29T11:23:59.412Z,98208.28
2019-03-29T11:25:37.922Z,98200.45
2019-03-29T11:27:22.437Z,98193.66
2019-03-29T11:28:58.742Z,98194.93
2019-03-29T11:30:42.537Z,98185.63
2019-03-29T11:32:15.875Z,98178.11
2019-03-29T11:33:52.434Z,98177.19
2019-03-29T11:35:33.400Z,98174.86
2019-03-29T11:37:11.390Z,98168.23
2019-03-29T11:38:48.152Z,98173.11
2019-03-29T11:40:24.975Z,98170.96
2019-03-29T11:42:04.849Z,98171.19
2019-03-29T11:43:41.748Z,98173.05
2019-03-29T11:45:18.621Z,98163.21
2019-03-29T11:47:01.598Z,98160.38
2019-03-29T11:48:39.042Z,98159.41
2019-03-29T11:50:16.600Z,98163.87
2019-03-29T11:51:55.545Z,98155.45
2019-03-29T11:53:32.545Z,98153.70
2019-03-29T11:55:20.543Z,98154.50
2019-03-29T11:56:56.959Z,98154.43
2019-03-29T11:58:34.479Z,98151.39
2019-03-29T12:00:14.105Z,98146.45
2019-03-29T12:01:53.716Z,98146.42
2019-03-29T12:03:53.552Z,98149.50
2019-03-29T12:05:38.081Z,98143.02
2019-03-29T12:07:15.631Z,98144.26
2019-03-29T12:09:00.695Z,98139.02
2019-03-29T12:11:13.116Z,98141.63
2019-03-29T12:13:02.756Z,98146.74
2019-03-29T12:14:56.152Z,98137.50
2019-03-29T12:16:57.302Z,98138.82
2019-03-29T12:18:58.864Z,98132.05
2019-03-29T12:20:39.972Z,98132.50
2019-03-29T12:22:19.113Z,98127.69
2019-03-29T12:23:56.013Z,98126.15
2019-03-29T12:25:34.780Z,98127.41
2019-03-29T12:27:15.207Z,98120.02
2019-03-29T12:28:51.250Z,98120.47
2019-03-29T12:30:32.988Z,98122.33
2019-03-29T12:32:10.608Z,98119.84
2019-03-29T12:33:50.455Z,98113.55
2019-03-29T12:35:35.311Z,98114.02
2019-03-29T12:37:15.024Z,98110.63
2019-03-29T12:38:57.289Z,98112.13
2019-03-29T12:40:33.301Z,98113.40
2019-03-29T12:42:18.755Z,98105.69
2019-03-29T12:43:59.220Z,98107.05
2019-03-29T12:45:35.656Z,98108.39
2019-03-29T12:47:19.239Z,98099.97
2019-03-29T12:48:58.650Z,98099.70
2019-03-29T12:50:37.040Z,98091.44
2019-03-29T12:52:13.656Z,98096.42
2019-03-29T12:53:53.569Z,98090.73
2019-03-29T12:55:32.199Z,98092.41
2019-03-29T12:57:12.825Z,98087.11
2019-03-29T12:58:49.323Z,98087.72
2019-03-29T13:00:29.076Z,98080.83
2019-03-29T13:02:09.456Z,98078.81
2019-03-29T13:03:45.824Z,98072.66
2019-03-29T13:05:22.605Z,98072.22
2019-03-29T13:06:59.655Z,98066.98
2019-03-29T13:08:40.915Z,98064.52
2019-03-29T13:10:22.893Z,98064.67
2019-03-29T13:12:01.686Z,98057.13
2019-03-29T13:13:38.161Z,98058.20
2019-03-29T13:15:18.325Z,98058.52
2019-03-29T13:16:54.633Z,98048.70
2019-03-29T13:18:30.830Z,98046.08
2019-03-29T13:20:08.143Z,98048.83
2019-03-29T13:21:44.762Z,98043.73
2019-03-29T13:23:24.729Z,98033.13
2019-03-29T13:25:00.792Z,98038.33
2019-03-29T13:26:37.608Z,98036.28
2019-03-29T13:28:15.585Z,98031.89
2019-03-29T13:29:54.733Z,98028.17
2019-03-29T13:31:37.293Z,98025.41
2019-03-29T13:33:20.588Z,98020.30
2019-03-29T13:34:59.177Z,98021.98
2019-03-29T13:36:35.627Z,98020.75
2019-03-29T13:38:11.699Z,98022.69
2019-03-29T13:39:51.049Z,98021.41
2019-03-29T13:41:27.300Z,98010.09
2019-03-29T13:43:03.950Z,98011.56
2019-03-29T13:44:40.459Z,98012.42
2019-03-29T13:46:25.776Z,98003.37
2019-03-29T13:48:08.459Z,97996.95
2019-03-29T13:49:45.090Z,98003.56
2019-03-29T13:51:23.783Z,97993.72
2019-03-29T13:53:02.020Z,97997.41
2019-03-29T13:54:40.241Z,97989.45
2019-03-29T13:56:18.719Z,97990.53
2019-03-29T13:57:59.893Z,97984.49
2019-03-29T13:59:45.052Z,97980.91
2019-03-29T14:01:29.327Z,97987.88
2019-03-29T14:03:07.607Z,97980.61
2019-03-29T14:04:45.603Z,97979.27
2019-03-29T14:06:21.690Z,97979.72
2019-03-29T14:08:04.064Z,97974.41
2019-03-29T14:09:43.619Z,97975.82
2019-03-29T14:11:22.466Z,97978.88
2019-03-29T14:13:03.224Z,97968.60
2019-03-29T14:14:40.794Z,97973.37
2019-03-29T14:16:16.885Z,97965.19
2019-03-29T14:17:52.973Z,97968.11
2019-03-29T14:19:29.366Z,97968.08
2019-03-29T14:21:09.209Z,97963.50
2019-03-29T14:22:45.424Z,97962.45
2019-03-29T14:24:21.395Z,97956.19
2019-03-29T14:26:03.513Z,97955.16
2019-03-29T14:27:40.749Z,97955.62
2019-03-29T14:29:16.842Z,97954.70
2019-03-29T14:30:57.203Z,97960.23
2019-03-29T14:32:33.451Z,97954.88
2019-03-29T14:34:27.094Z,97947.66
2019-03-29T14:35:59.314Z,97949.13
2019-03-29T14:37:35.631Z,97956.33
2019-03-29T14:39:17.623Z,97944.47
2019-03-29T14:40:55.694Z,97941.36
2019-03-29T14:42:37.235Z,97940.55
2019-03-29T14:44:14.535Z,97940.55
2019-03-29T14:45:51.231Z,97936.36
2019-03-29T14:47:39.806Z,97933.01
2019-03-29T14:49:05.382Z,97939.33
2019-03-29T14:50:41.407Z,97932.20
2019-03-29T14:52:17.900Z,97928.05
2019-03-29T14:53:55.817Z,97928.41
2019-03-29T14:55:31.999Z,97928.92
2019-03-29T14:57:08.627Z,97922.71
2019-03-29T14:58:56.910Z,97917.66
2019-03-29T15:00:43.056Z,97914.56
2019-03-29T15:02:25.026Z,97919.33
2019-03-29T15:04:01.488Z,97912.70
2019-03-29T15:05:44.344Z,97914.86
2019-03-29T15:07:28.891Z,97906.97
2019-03-29T15:09:06.173Z,97911.48
2019-03-29T15:10:48.951Z,97909.50
2019-03-29T15:12:28.679Z,97902.77
2019-03-29T15:14:11.301Z,97896.97
2019-03-29T15:15:48.096Z,97887.27
2019-03-29T15:17:27.205Z,97881.02
2019-03-29T15:19:03.534Z,97885.95
2019-03-29T15:20:53.231Z,97885.33
2019-03-29T15:22:27.500Z,97884.14
2019-03-29T15:24:06.197Z,97879.59
2019-03-29T15:25:54.746Z,97877.23
2019-03-29T15:27:36.337Z,97874.92
2019-03-29T15:29:12.971Z,97871.98
2019-03-29T15:30:54.461Z,97869.92
2019-03-29T15:32:32.088Z,97866.80
2019-03-29T15:34:17.211Z,97869.98
2019-03-29T15:35:56.577Z,97868.78
2019-03-29T15:37:34.948Z,97870.09
2019-03-29T15:39:13.376Z,97872.00
2019-03-29T15:40:51.320Z,97869.95
2019-03-29T15:42:28.007Z,97868.14
2019-03-29T15:44:08.416Z,97877.22
2019-03-29T15:45:47.595Z,97869.80
2019-03-29T15:47:30.379Z,97861.69
2019-03-29T15:49:10.818Z,97863.94
2019-03-29T15:51:07.680Z,97862.16
2019-03-29T15:52:48.607Z,97860.69
2019-03-29T15:54:25.591Z,97856.70
2019-03-29T15:56:04.243Z,97855.72
2019-03-29T15:57:46.094Z,97854.61
2019-03-29T15:59:24.608Z,97853.15
2019-03-29T16:01:03.202Z,97846.79
2019-03-29T16:02:40.405Z,97849.14
2019-03-29T16:04:18.540Z,97848.28
2019-03-29T16:05:58.750Z,97840.44
2019-03-29T16:07:39.853Z,97845.55
2019-03-29T16:09:17.216Z,97836.82
2019-03-29T16:10:55.345Z,97828.83
2019-03-29T16:12:34.562Z,97830.55
2019-03-29T16:14:11.664Z,97832.59
2019-03-29T16:15:52.715Z,97837.67
2019-03-29T16:17:36.918Z,97833.83
2019-03-29T16:19:41.853Z,97829.59
2019-03-29T16:21:27.842Z,97827.33
2019-03-29T16:24:09.359Z,97828.31
2019-03-29T16:26:18.240Z,97822.06
2019-03-29T16:28:11.312Z,97817.45
2019-03-29T16:29:47.563Z,97810.88
2019-03-29T16:31:26.534Z,97808.91
2019-03-29T16:33:03.365Z,97808.45
2019-03-29T16:34:41.506Z,97813.37
2019-03-29T16:36:19.995Z,97813.86
2019-03-29T16:38:02.124Z,97813.55
2019-03-29T16:39:38.428Z,97809.73
2019-03-29T16:41:18.892Z,97808.64
2019-03-29T16:43:00.744Z,97815.26
2019-03-29T16:44:41.492Z,97816.49
2019-03-29T16:46:28.148Z,97814.03
2019-03-29T16:48:10.686Z,97819.41
2019-03-29T16:49:48.895Z,97811.88
2019-03-29T16:51:26.906Z,97813.71
2019-03-29T16:53:12.817Z,97814.02
2019-03-29T16:54:49.985Z,97818.73
2019-03-29T16:56:36.611Z,97810.92
2019-03-29T16:58:14.388Z,97809.66
2019-03-29T16:59:53.615Z,97808.91
2019-03-29T17:01:34.185Z,97811.17
2019-03-29T17:03:12.023Z,97807.20
2019-03-29T17:04:51.500Z,97811.63
2019-03-29T17:06:27.752Z,97815.59
2019-03-29T17:08:05.398Z,97814.37
2019-03-29T17:09:49.113Z,97818.63
2019-03-29T17:11:32.524Z,97814.80
2019-03-29T17:13:10.517Z,97813.24
2019-03-29T17:14:49.724Z,97813.53
2019-03-29T17:16:30.610Z,97815.36
2019-03-29T17:18:08.544Z,97821.02
2019-03-29T17:19:45.310Z,97816.84
2019-03-29T17:21:23.636Z,97813.64
2019-03-29T17:23:02.557Z,97816.97
2019-03-29T17:24:39.151Z,97823.06
2019-03-29T17:26:19.713Z,97819.78
2019-03-29T17:28:00.706Z,97820.19
2019-03-29T17:29:43.041Z,97818.77
2019-03-29T17:31:20.556Z,97828.47
2019-03-29T17:33:02.009Z,97820.58
2019-03-29T17:34:39.959Z,97825.09
2019-03-29T17:36:17.281Z,97824.45
2019-03-29T17:38:00.062Z,97823.78
2019-03-29T17:39:38.543Z,97828.25
2019-03-29T17:41:13.781Z,97826.30
2019-03-29T17:42:50.737Z,97832.27
2019-03-29T17:44:32.388Z,97825.70
2019-03-29T17:46:16.701Z,97832.16
2019-03-29T17:47:49.320Z,97831.53
2019-03-29T17:49:27.512Z,97834.45
2019-03-29T17:51:06.750Z,97833.62
2019-03-29T17:52:43.093Z,97835.21
2019-03-29T17:54:19.524Z,97835.72
2019-03-29T17:55:56.272Z,97837.33
2019-03-29T17:57:34.041Z,97839.05
2019-03-29T17:59:15.585Z,97836.73
2019-03-29T18:00:53.823Z,97841.92
2019-03-29T18:02:32.761Z,97837.92
2019-03-29T18:06:06.132Z,97838.34
2019-03-29T18:07:47.928Z,97835.52
2019-03-29T18:09:27.675Z,97848.64
2019-03-29T18:11:04.554Z,97847.38
2019-03-29T18:12:41.215Z,97844.39
2019-03-29T18:14:25.980Z,97852.95
2019-03-29T18:16:35.273Z,97850.97
2019-03-29T18:19:25.291Z,97850.03
2019-03-29T18:21:12.047Z,97857.39
2019-03-29T18:22:53.960Z,97860.63
2019-03-29T18:24:35.823Z,97863.17
2019-03-29T18:26:18.606Z,97864.79
2019-03-29T18:27:56.280Z,97861.16
2019-03-29T18:29:32.434Z,97859.78
2019-03-29T18:31:22.860Z,97860.33
2019-03-29T18:32:58.900Z,97858.16
2019-03-29T18:34:38.048Z,97861.91
2019-03-29T18:36:23.933Z,97858.03
2019-03-29T18:37:59.191Z,97866.00
2019-03-29T18:39:37.915Z,97859.87
2019-03-29T18:41:14.387Z,97858.59
2019-03-29T18:43:01.783Z,97856.52
2019-03-29T18:44:39.940Z,97858.89
2019-03-29T18:46:20.471Z,97861.88
2019-03-29T18:48:02.432Z,97859.56
2019-03-29T18:49:43.682Z,97858.44
2019-03-29T18:51:26.185Z,97858.20
2019-03-29T18:53:06.501Z,97856.97
2019-03-29T18:54:43.024Z,97866.90
2019-03-29T18:56:19.251Z,97860.17
2019-03-29T18:58:05.731Z,97861.18
2019-03-29T18:59:37.888Z,97864.47
2019-03-29T19:01:14.283Z,97859.77
2019-03-29T19:02:55.282Z,97862.45
2019-03-29T19:04:38.073Z,97862.33
2019-03-29T19:06:17.054Z,97863.05
2019-03-29T19:07:58.447Z,97867.06
2019-03-29T19:09:40.536Z,97863.32
2019-03-29T19:11:20.560Z,97866.86
2019-03-29T19:13:02.340Z,97863.17
2019-03-29T19:14:51.336Z,97869.06
2019-03-29T19:16:29.520Z,97861.13
2019-03-29T19:18:16.838Z,97858.09
2019-03-29T19:19:55.361Z,97859.94
2019-03-29T19:21:37.136Z,97855.75
2019-03-29T19:23:22.777Z,97862.97
2019-03-29T19:25:00.845Z,97862.13
2019-03-29T19:26:39.066Z,97864.27
2019-03-29T19:28:15.206Z,97859.53
2019-03-29T19:29:53.942Z,97867.85
2019-03-29T19:31:31.958Z,97865.81